Terminal Aerodrome Forecast
Issued by NWS

Home | Current Version | Previous Version | Text Only | Print | Product List | Glossary On
Versions: 1 2 3 4 5 6 7 8 9 10 11 12 13 14 15
000
FTUS44 KEWX 160520
TAFSSF
TAF
KSSF 160520Z 1606/1706 19003KT P6SM SCT100 BKN200
     FM161600 18004KT P6SM -RA OVC035
     FM162030 08005KT 2SM RA OVC007
     FM170300 VRB04KT 5SM BR OVC007=

USA.gov is the U.S. government's official web portal to all federal, state and local government web resources and services.